sensor_id;sensor_type;location;lat;lon;timestamp;P1;durP1;ratioP1;P2;durP2;ratioP2
35380;SDS011;21486;51.916;8.378;2023-05-10T00:01:54;18.25;;;14.25;;
35380;SDS011;21486;51.916;8.378;2023-05-10T00:04:20;18.17;;;13.90;;
35380;SDS011;21486;51.916;8.378;2023-05-10T00:06:46;21.25;;;14.32;;
35380;SDS011;21486;51.916;8.378;2023-05-10T00:09:12;19.43;;;14.73;;
35380;SDS011;21486;51.916;8.378;2023-05-10T00:11:37;20.08;;;14.20;;
35380;SDS011;21486;51.916;8.378;2023-05-10T00:14:03;18.87;;;14.40;;
35380;SDS011;21486;51.916;8.378;2023-05-10T00:16:28;20.37;;;14.30;;
35380;SDS011;21486;51.916;8.378;2023-05-10T00:18:54;16.58;;;12.63;;
35380;SDS011;21486;51.916;8.378;2023-05-10T00:21:19;16.93;;;12.00;;
35380;SDS011;21486;51.916;8.378;2023-05-10T00:23:45;19.40;;;12.93;;
35380;SDS011;21486;51.916;8.378;2023-05-10T00:26:10;16.17;;;11.93;;
35380;SDS011;21486;51.916;8.378;2023-05-10T00:28:36;14.57;;;11.53;;
35380;SDS011;21486;51.916;8.378;2023-05-10T00:33:03;17.40;;;12.10;;
35380;SDS011;21486;51.916;8.378;2023-05-10T00:35:29;17.60;;;13.75;;
35380;SDS011;21486;51.916;8.378;2023-05-10T00:37:54;15.97;;;12.20;;
35380;SDS011;21486;51.916;8.378;2023-05-10T00:40:20;16.70;;;12.63;;
35380;SDS011;21486;51.916;8.378;2023-05-10T00:42:45;17.05;;;12.63;;
35380;SDS011;21486;51.916;8.378;2023-05-10T00:45:11;15.88;;;12.32;;
35380;SDS011;21486;51.916;8.378;2023-05-10T00:47:36;16.83;;;12.37;;
35380;SDS011;21486;51.916;8.378;2023-05-10T00:50:02;12.63;;;10.23;;
35380;SDS011;21486;51.916;8.378;2023-05-10T00:52:30;12.75;;;10.13;;
35380;SDS011;21486;51.916;8.378;2023-05-10T00:54:55;13.23;;;9.60;;
35380;SDS011;21486;51.916;8.378;2023-05-10T00:57:22;12.80;;;9.65;;
35380;SDS011;21486;51.916;8.378;2023-05-10T00:59:47;16.10;;;10.70;;
35380;SDS011;21486;51.916;8.378;2023-05-10T01:02:13;15.20;;;10.90;;
35380;SDS011;21486;51.916;8.378;2023-05-10T01:04:39;12.17;;;9.90;;
35380;SDS011;21486;51.916;8.378;2023-05-10T01:07:05;15.30;;;11.23;;
35380;SDS011;21486;51.916;8.378;2023-05-10T01:09:31;14.40;;;10.83;;
35380;SDS011;21486;51.916;8.378;2023-05-10T01:11:57;14.27;;;10.48;;
35380;SDS011;21486;51.916;8.378;2023-05-10T01:14:24;14.63;;;10.88;;
35380;SDS011;21486;51.916;8.378;2023-05-10T01:16:51;15.43;;;11.23;;
35380;SDS011;21486;51.916;8.378;2023-05-10T01:21:56;18.48;;;11.82;;
35380;SDS011;21486;51.916;8.378;2023-05-10T01:35:07;20.67;;;12.90;;
35380;SDS011;21486;51.916;8.378;2023-05-10T01:37:41;17.33;;;12.48;;
35380;SDS011;21486;51.916;8.378;2023-05-10T01:43:22;19.00;;;13.25;;
35380;SDS011;21486;51.916;8.378;2023-05-10T01:46:10;20.42;;;13.55;;
35380;SDS011;21486;51.916;8.378;2023-05-10T01:48:43;17.70;;;13.40;;
35380;SDS011;21486;51.916;8.378;2023-05-10T01:51:15;16.37;;;12.40;;
35380;SDS011;21486;51.916;8.378;2023-05-10T01:53:45;15.52;;;11.57;;
35380;SDS011;21486;51.916;8.378;2023-05-10T01:56:12;13.68;;;10.32;;
35380;SDS011;21486;51.916;8.378;2023-05-10T01:58:39;16.63;;;11.27;;
35380;SDS011;21486;51.916;8.378;2023-05-10T02:01:08;15.07;;;10.30;;
35380;SDS011;21486;51.916;8.378;2023-05-10T02:03:35;13.75;;;10.50;;
35380;SDS011;21486;51.916;8.378;2023-05-10T02:06:03;16.30;;;10.88;;
35380;SDS011;21486;51.916;8.378;2023-05-10T02:08:30;14.90;;;11.00;;
35380;SDS011;21486;51.916;8.378;2023-05-10T02:10:57;12.75;;;10.00;;
35380;SDS011;21486;51.916;8.378;2023-05-10T02:13:24;12.55;;;9.55;;
35380;SDS011;21486;51.916;8.378;2023-05-10T02:15:51;15.17;;;10.37;;
35380;SDS011;21486;51.916;8.378;2023-05-10T02:18:18;14.88;;;10.88;;
35380;SDS011;21486;51.916;8.378;2023-05-10T02:20:45;13.60;;;10.70;;
35380;SDS011;21486;51.916;8.378;2023-05-10T02:23:11;15.77;;;10.63;;
35380;SDS011;21486;51.916;8.378;2023-05-10T02:25:38;17.00;;;10.88;;
35380;SDS011;21486;51.916;8.378;2023-05-10T02:28:05;18.35;;;11.15;;
35380;SDS011;21486;51.916;8.378;2023-05-10T02:30:32;15.37;;;10.67;;
35380;SDS011;21486;51.916;8.378;2023-05-10T02:32:59;14.10;;;10.18;;
35380;SDS011;21486;51.916;8.378;2023-05-10T02:35:27;14.57;;;11.05;;
35380;SDS011;21486;51.916;8.378;2023-05-10T02:37:53;17.92;;;11.98;;
35380;SDS011;21486;51.916;8.378;2023-05-10T02:40:19;17.00;;;12.27;;
35380;SDS011;21486;51.916;8.378;2023-05-10T02:42:47;18.92;;;12.52;;
35380;SDS011;21486;51.916;8.378;2023-05-10T02:45:18;16.85;;;12.00;;
35380;SDS011;21486;51.916;8.378;2023-05-10T02:47:47;19.23;;;13.30;;
35380;SDS011;21486;51.916;8.378;2023-05-10T02:50:13;18.77;;;13.23;;
35380;SDS011;21486;51.916;8.378;2023-05-10T02:52:39;19.23;;;13.07;;
35380;SDS011;21486;51.916;8.378;2023-05-10T02:55:08;19.92;;;13.73;;
35380;SDS011;21486;51.916;8.378;2023-05-10T02:57:34;21.70;;;13.75;;
35380;SDS011;21486;51.916;8.378;2023-05-10T03:00:06;21.23;;;14.35;;
35380;SDS011;21486;51.916;8.378;2023-05-10T03:02:33;22.55;;;14.90;;
35380;SDS011;21486;51.916;8.378;2023-05-10T03:04:59;22.93;;;15.13;;
35380;SDS011;21486;51.916;8.378;2023-05-10T03:07:24;22.37;;;14.67;;
35380;SDS011;21486;51.916;8.378;2023-05-10T03:09:50;23.05;;;15.45;;
35380;SDS011;21486;51.916;8.378;2023-05-10T03:12:23;24.03;;;15.37;;
35380;SDS011;21486;51.916;8.378;2023-05-10T03:17:52;22.40;;;14.45;;
35380;SDS011;21486;51.916;8.378;2023-05-10T03:20:26;21.63;;;14.90;;
35380;SDS011;21486;51.916;8.378;2023-05-10T03:23:30;21.08;;;14.02;;
35380;SDS011;21486;51.916;8.378;2023-05-10T03:25:50;18.77;;;12.93;;
35380;SDS011;21486;51.916;8.378;2023-05-10T03:28:17;18.52;;;11.55;;
35380;SDS011;21486;51.916;8.378;2023-05-10T03:30:43;18.33;;;12.18;;
35380;SDS011;21486;51.916;8.378;2023-05-10T03:33:10;20.42;;;12.60;;
35380;SDS011;21486;51.916;8.378;2023-05-10T03:35:37;16.65;;;11.55;;
35380;SDS011;21486;51.916;8.378;2023-05-10T03:38:03;18.35;;;10.65;;
35380;SDS011;21486;51.916;8.378;2023-05-10T03:40:35;14.77;;;9.70;;
35380;SDS011;21486;51.916;8.378;2023-05-10T03:43:01;11.70;;;7.60;;
35380;SDS011;21486;51.916;8.378;2023-05-10T03:45:26;9.60;;;6.63;;
35380;SDS011;21486;51.916;8.378;2023-05-10T03:47:52;10.93;;;6.00;;
35380;SDS011;21486;51.916;8.378;2023-05-10T03:50:17;5.82;;;4.50;;
35380;SDS011;21486;51.916;8.378;2023-05-10T03:52:43;5.45;;;3.70;;
35380;SDS011;21486;51.916;8.378;2023-05-10T03:55:09;4.72;;;2.60;;
35380;SDS011;21486;51.916;8.378;2023-05-10T03:57:35;6.55;;;2.83;;
35380;SDS011;21486;51.916;8.378;2023-05-10T04:00:01;5.10;;;3.00;;
35380;SDS011;21486;51.916;8.378;2023-05-10T04:02:27;4.97;;;2.42;;
35380;SDS011;21486;51.916;8.378;2023-05-10T04:04:54;4.68;;;2.58;;
35380;SDS011;21486;51.916;8.378;2023-05-10T04:07:20;5.17;;;2.30;;
35380;SDS011;21486;51.916;8.378;2023-05-10T04:09:46;3.17;;;2.30;;
35380;SDS011;21486;51.916;8.378;2023-05-10T04:12:12;5.23;;;2.60;;
35380;SDS011;21486;51.916;8.378;2023-05-10T04:14:37;5.20;;;2.53;;
35380;SDS011;21486;51.916;8.378;2023-05-10T04:17:03;4.43;;;2.47;;
35380;SDS011;21486;51.916;8.378;2023-05-10T04:19:29;4.77;;;2.60;;
35380;SDS011;21486;51.916;8.378;2023-05-10T04:21:55;3.92;;;2.63;;
35380;SDS011;21486;51.916;8.378;2023-05-10T04:24:20;4.50;;;3.17;;
35380;SDS011;21486;51.916;8.378;2023-05-10T04:26:46;3.58;;;2.95;;
35380;SDS011;21486;51.916;8.378;2023-05-10T04:29:11;4.93;;;3.23;;
35380;SDS011;21486;51.916;8.378;2023-05-10T04:31:37;4.30;;;3.80;;
35380;SDS011;21486;51.916;8.378;2023-05-10T04:34:03;4.80;;;3.60;;
35380;SDS011;21486;51.916;8.378;2023-05-10T04:36:28;5.63;;;3.47;;
35380;SDS011;21486;51.916;8.378;2023-05-10T04:38:54;4.90;;;3.63;;
35380;SDS011;21486;51.916;8.378;2023-05-10T04:41:19;5.57;;;3.73;;
35380;SDS011;21486;51.916;8.378;2023-05-10T04:43:45;3.90;;;3.42;;
35380;SDS011;21486;51.916;8.378;2023-05-10T04:46:13;4.47;;;3.70;;
35380;SDS011;21486;51.916;8.378;2023-05-10T04:48:39;5.07;;;3.50;;
35380;SDS011;21486;51.916;8.378;2023-05-10T04:51:04;7.10;;;3.70;;
35380;SDS011;21486;51.916;8.378;2023-05-10T04:53:31;4.93;;;3.67;;
35380;SDS011;21486;51.916;8.378;2023-05-10T04:55:57;7.20;;;3.50;;
35380;SDS011;21486;51.916;8.378;2023-05-10T04:58:22;4.40;;;4.00;;
35380;SDS011;21486;51.916;8.378;2023-05-10T05:00:48;6.10;;;4.10;;
35380;SDS011;21486;51.916;8.378;2023-05-10T05:03:13;6.40;;;4.20;;
35380;SDS011;21486;51.916;8.378;2023-05-10T05:05:39;7.38;;;4.03;;
35380;SDS011;21486;51.916;8.378;2023-05-10T05:08:05;5.47;;;3.77;;
35380;SDS011;21486;51.916;8.378;2023-05-10T05:10:30;9.33;;;4.07;;
35380;SDS011;21486;51.916;8.378;2023-05-10T05:12:56;5.47;;;3.80;;
35380;SDS011;21486;51.916;8.378;2023-05-10T05:15:22;5.83;;;3.80;;
35380;SDS011;21486;51.916;8.378;2023-05-10T05:17:47;4.97;;;3.80;;
35380;SDS011;21486;51.916;8.378;2023-05-10T05:20:13;6.28;;;3.80;;
35380;SDS011;21486;51.916;8.378;2023-05-10T05:22:39;5.68;;;3.75;;
35380;SDS011;21486;51.916;8.378;2023-05-10T05:25:04;7.07;;;3.90;;
35380;SDS011;21486;51.916;8.378;2023-05-10T05:27:31;5.00;;;3.75;;
35380;SDS011;21486;51.916;8.378;2023-05-10T05:29:57;4.72;;;3.70;;
35380;SDS011;21486;51.916;8.378;2023-05-10T05:32:23;4.87;;;3.90;;
35380;SDS011;21486;51.916;8.378;2023-05-10T05:34:49;5.43;;;4.20;;
35380;SDS011;21486;51.916;8.378;2023-05-10T05:37:15;5.50;;;4.10;;
35380;SDS011;21486;51.916;8.378;2023-05-10T05:39:42;7.18;;;4.28;;
35380;SDS011;21486;51.916;8.378;2023-05-10T05:42:08;5.43;;;4.10;;
35380;SDS011;21486;51.916;8.378;2023-05-10T05:44:34;4.93;;;3.92;;
35380;SDS011;21486;51.916;8.378;2023-05-10T05:47:00;8.38;;;4.68;;
35380;SDS011;21486;51.916;8.378;2023-05-10T05:49:25;8.00;;;4.57;;
35380;SDS011;21486;51.916;8.378;2023-05-10T05:51:51;6.07;;;4.70;;
35380;SDS011;21486;51.916;8.378;2023-05-10T05:54:16;5.47;;;4.40;;
35380;SDS011;21486;51.916;8.378;2023-05-10T05:56:42;6.30;;;4.20;;
35380;SDS011;21486;51.916;8.378;2023-05-10T05:59:09;4.30;;;3.88;;
35380;SDS011;21486;51.916;8.378;2023-05-10T06:01:35;8.05;;;3.95;;
35380;SDS011;21486;51.916;8.378;2023-05-10T06:04:00;6.20;;;4.20;;
35380;SDS011;21486;51.916;8.378;2023-05-10T06:06:26;4.73;;;4.10;;
35380;SDS011;21486;51.916;8.378;2023-05-10T06:08:52;4.63;;;3.83;;
35380;SDS011;21486;51.916;8.378;2023-05-10T06:11:18;6.30;;;4.27;;
35380;SDS011;21486;51.916;8.378;2023-05-10T06:13:43;5.55;;;3.78;;
35380;SDS011;21486;51.916;8.378;2023-05-10T06:16:09;5.65;;;4.30;;
35380;SDS011;21486;51.916;8.378;2023-05-10T06:18:35;5.20;;;3.80;;
35380;SDS011;21486;51.916;8.378;2023-05-10T06:21:00;6.87;;;3.93;;
35380;SDS011;21486;51.916;8.378;2023-05-10T06:23:26;6.97;;;4.47;;
35380;SDS011;21486;51.916;8.378;2023-05-10T06:25:52;8.30;;;4.57;;
35380;SDS011;21486;51.916;8.378;2023-05-10T06:28:17;6.63;;;4.70;;
35380;SDS011;21486;51.916;8.378;2023-05-10T06:30:43;5.97;;;4.40;;
35380;SDS011;21486;51.916;8.378;2023-05-10T06:33:09;7.38;;;4.85;;
35380;SDS011;21486;51.916;8.378;2023-05-10T06:35:34;6.63;;;4.63;;
35380;SDS011;21486;51.916;8.378;2023-05-10T06:38:01;5.43;;;4.75;;
35380;SDS011;21486;51.916;8.378;2023-05-10T06:40:27;9.17;;;5.27;;
35380;SDS011;21486;51.916;8.378;2023-05-10T06:42:53;10.10;;;4.95;;
35380;SDS011;21486;51.916;8.378;2023-05-10T06:45:18;10.15;;;6.07;;
35380;SDS011;21486;51.916;8.378;2023-05-10T06:47:44;10.53;;;7.10;;
35380;SDS011;21486;51.916;8.378;2023-05-10T06:50:10;7.97;;;4.85;;
35380;SDS011;21486;51.916;8.378;2023-05-10T06:52:36;8.65;;;5.70;;
35380;SDS011;21486;51.916;8.378;2023-05-10T06:55:03;9.15;;;5.40;;
35380;SDS011;21486;51.916;8.378;2023-05-10T06:57:29;10.80;;;6.07;;
35380;SDS011;21486;51.916;8.378;2023-05-10T06:59:55;10.60;;;6.73;;
35380;SDS011;21486;51.916;8.378;2023-05-10T07:02:21;10.17;;;6.70;;
35380;SDS011;21486;51.916;8.378;2023-05-10T07:04:47;13.45;;;7.60;;
35380;SDS011;21486;51.916;8.378;2023-05-10T07:07:13;15.13;;;8.10;;
35380;SDS011;21486;51.916;8.378;2023-05-10T07:09:39;21.27;;;9.90;;
35380;SDS011;21486;51.916;8.378;2023-05-10T07:12:05;20.40;;;10.27;;
35380;SDS011;21486;51.916;8.378;2023-05-10T07:14:31;30.02;;;13.95;;
35380;SDS011;21486;51.916;8.378;2023-05-10T07:16:56;30.43;;;13.67;;
35380;SDS011;21486;51.916;8.378;2023-05-10T07:19:22;28.67;;;14.00;;
35380;SDS011;21486;51.916;8.378;2023-05-10T07:21:48;30.58;;;13.80;;
35380;SDS011;21486;51.916;8.378;2023-05-10T07:24:13;32.50;;;15.35;;
35380;SDS011;21486;51.916;8.378;2023-05-10T07:26:39;35.77;;;15.13;;
35380;SDS011;21486;51.916;8.378;2023-05-10T07:29:04;33.67;;;15.03;;
35380;SDS011;21486;51.916;8.378;2023-05-10T07:31:30;34.83;;;15.77;;
35380;SDS011;21486;51.916;8.378;2023-05-10T07:33:55;33.22;;;15.90;;
35380;SDS011;21486;51.916;8.378;2023-05-10T07:36:21;26.70;;;14.23;;
35380;SDS011;21486;51.916;8.378;2023-05-10T07:38:47;30.40;;;14.70;;
35380;SDS011;21486;51.916;8.378;2023-05-10T07:41:12;28.45;;;13.43;;
35380;SDS011;21486;51.916;8.378;2023-05-10T07:43:38;28.10;;;14.37;;
35380;SDS011;21486;51.916;8.378;2023-05-10T07:46:04;28.60;;;14.10;;
35380;SDS011;21486;51.916;8.378;2023-05-10T07:48:30;27.52;;;15.45;;
35380;SDS011;21486;51.916;8.378;2023-05-10T07:50:56;29.10;;;14.23;;
35380;SDS011;21486;51.916;8.378;2023-05-10T07:53:21;30.63;;;15.80;;
35380;SDS011;21486;51.916;8.378;2023-05-10T07:55:50;29.47;;;16.17;;
35380;SDS011;21486;51.916;8.378;2023-05-10T07:58:19;29.13;;;16.17;;
35380;SDS011;21486;51.916;8.378;2023-05-10T08:00:44;30.42;;;16.95;;
35380;SDS011;21486;51.916;8.378;2023-05-10T08:03:10;28.50;;;16.63;;
35380;SDS011;21486;51.916;8.378;2023-05-10T08:05:35;31.93;;;17.37;;
35380;SDS011;21486;51.916;8.378;2023-05-10T08:08:01;27.73;;;16.77;;
35380;SDS011;21486;51.916;8.378;2023-05-10T08:10:27;27.57;;;15.67;;
35380;SDS011;21486;51.916;8.378;2023-05-10T08:12:52;29.00;;;16.92;;
35380;SDS011;21486;51.916;8.378;2023-05-10T08:15:18;26.45;;;16.52;;
35380;SDS011;21486;51.916;8.378;2023-05-10T08:17:43;34.57;;;19.87;;
35380;SDS011;21486;51.916;8.378;2023-05-10T08:20:09;34.97;;;19.80;;
35380;SDS011;21486;51.916;8.378;2023-05-10T08:22:34;37.75;;;20.70;;
35380;SDS011;21486;51.916;8.378;2023-05-10T08:25:00;34.22;;;20.55;;
35380;SDS011;21486;51.916;8.378;2023-05-10T08:27:26;37.57;;;21.67;;
35380;SDS011;21486;51.916;8.378;2023-05-10T08:29:51;40.07;;;21.90;;
35380;SDS011;21486;51.916;8.378;2023-05-10T08:32:17;40.63;;;22.95;;
35380;SDS011;21486;51.916;8.378;2023-05-10T08:34:42;36.33;;;21.20;;
35380;SDS011;21486;51.916;8.378;2023-05-10T08:37:08;37.80;;;19.53;;
35380;SDS011;21486;51.916;8.378;2023-05-10T08:39:35;32.20;;;19.55;;
35380;SDS011;21486;51.916;8.378;2023-05-10T08:42:01;39.58;;;20.83;;
35380;SDS011;21486;51.916;8.378;2023-05-10T08:44:30;35.95;;;20.63;;
35380;SDS011;21486;51.916;8.378;2023-05-10T08:47:01;39.10;;;21.50;;
35380;SDS011;21486;51.916;8.378;2023-05-10T08:49:31;38.80;;;21.75;;
35380;SDS011;21486;51.916;8.378;2023-05-10T08:51:57;39.72;;;22.58;;
35380;SDS011;21486;51.916;8.378;2023-05-10T08:54:26;39.13;;;23.17;;
35380;SDS011;21486;51.916;8.378;2023-05-10T08:56:52;42.40;;;23.30;;
35380;SDS011;21486;51.916;8.378;2023-05-10T08:59:18;45.57;;;25.40;;
35380;SDS011;21486;51.916;8.378;2023-05-10T09:01:44;43.58;;;25.83;;
35380;SDS011;21486;51.916;8.378;2023-05-10T09:04:12;46.33;;;26.17;;
35380;SDS011;21486;51.916;8.378;2023-05-10T09:06:38;44.30;;;25.02;;
35380;SDS011;21486;51.916;8.378;2023-05-10T09:09:03;43.08;;;25.02;;
35380;SDS011;21486;51.916;8.378;2023-05-10T09:11:29;44.40;;;25.17;;
35380;SDS011;21486;51.916;8.378;2023-05-10T09:13:55;40.25;;;23.27;;
35380;SDS011;21486;51.916;8.378;2023-05-10T09:16:21;37.63;;;23.50;;
35380;SDS011;21486;51.916;8.378;2023-05-10T09:18:47;36.22;;;22.75;;
35380;SDS011;21486;51.916;8.378;2023-05-10T09:21:14;34.08;;;22.02;;
35380;SDS011;21486;51.916;8.378;2023-05-10T09:23:42;33.55;;;22.05;;
35380;SDS011;21486;51.916;8.378;2023-05-10T09:26:08;36.35;;;22.63;;
35380;SDS011;21486;51.916;8.378;2023-05-10T09:28:34;34.70;;;22.20;;
35380;SDS011;21486;51.916;8.378;2023-05-10T09:31:19;34.10;;;22.15;;
35380;SDS011;21486;51.916;8.378;2023-05-10T09:33:45;34.65;;;23.02;;
35380;SDS011;21486;51.916;8.378;2023-05-10T09:36:11;36.50;;;22.20;;
35380;SDS011;21486;51.916;8.378;2023-05-10T09:38:50;34.88;;;21.02;;
35380;SDS011;21486;51.916;8.378;2023-05-10T09:43:47;31.50;;;20.13;;
35380;SDS011;21486;51.916;8.378;2023-05-10T09:46:12;27.52;;;18.30;;
35380;SDS011;21486;51.916;8.378;2023-05-10T09:48:40;27.87;;;17.80;;
35380;SDS011;21486;51.916;8.378;2023-05-10T09:51:08;26.40;;;17.77;;
35380;SDS011;21486;51.916;8.378;2023-05-10T09:53:34;29.88;;;17.42;;
35380;SDS011;21486;51.916;8.378;2023-05-10T09:56:00;19.73;;;13.55;;
35380;SDS011;21486;51.916;8.378;2023-05-10T09:58:28;22.15;;;13.68;;
35380;SDS011;21486;51.916;8.378;2023-05-10T10:00:53;19.40;;;12.00;;
35380;SDS011;21486;51.916;8.378;2023-05-10T10:03:21;20.42;;;13.70;;
35380;SDS011;21486;51.916;8.378;2023-05-10T10:05:55;22.50;;;14.40;;
35380;SDS011;21486;51.916;8.378;2023-05-10T10:08:21;23.77;;;15.27;;
35380;SDS011;21486;51.916;8.378;2023-05-10T10:10:47;19.25;;;13.82;;
35380;SDS011;21486;51.916;8.378;2023-05-10T10:13:13;22.93;;;13.83;;
35380;SDS011;21486;51.916;8.378;2023-05-10T10:15:40;21.27;;;14.35;;
35380;SDS011;21486;51.916;8.378;2023-05-10T10:18:07;20.48;;;14.98;;
35380;SDS011;21486;51.916;8.378;2023-05-10T10:20:37;18.25;;;13.32;;
35380;SDS011;21486;51.916;8.378;2023-05-10T10:23:02;19.97;;;13.53;;
35380;SDS011;21486;51.916;8.378;2023-05-10T10:25:31;19.65;;;13.60;;
35380;SDS011;21486;51.916;8.378;2023-05-10T10:28:07;22.27;;;15.32;;
35380;SDS011;21486;51.916;8.378;2023-05-10T10:30:49;23.67;;;15.50;;
35380;SDS011;21486;51.916;8.378;2023-05-10T10:36:05;23.57;;;14.77;;
35380;SDS011;21486;51.916;8.378;2023-05-10T10:42:13;24.60;;;15.35;;
35380;SDS011;21486;51.916;8.378;2023-05-10T10:47:02;21.07;;;14.20;;
35380;SDS011;21486;51.916;8.378;2023-05-10T10:50:02;19.10;;;11.70;;
35380;SDS011;21486;51.916;8.378;2023-05-10T10:52:31;16.38;;;10.93;;
35380;SDS011;21486;51.916;8.378;2023-05-10T10:57:24;18.02;;;10.02;;
35380;SDS011;21486;51.916;8.378;2023-05-10T10:59:51;15.10;;;9.50;;
35380;SDS011;21486;51.916;8.378;2023-05-10T11:07:51;15.70;;;10.00;;
35380;SDS011;21486;51.916;8.378;2023-05-10T11:10:21;20.70;;;11.65;;
35380;SDS011;21486;51.916;8.378;2023-05-10T11:13:26;17.85;;;11.02;;
35380;SDS011;21486;51.916;8.378;2023-05-10T11:15:39;19.20;;;11.65;;
35380;SDS011;21486;51.916;8.378;2023-05-10T11:18:17;19.55;;;12.52;;
35380;SDS011;21486;51.916;8.378;2023-05-10T11:20:49;21.53;;;13.00;;
35380;SDS011;21486;51.916;8.378;2023-05-10T11:23:16;20.55;;;12.27;;
35380;SDS011;21486;51.916;8.378;2023-05-10T11:25:43;18.17;;;11.95;;
35380;SDS011;21486;51.916;8.378;2023-05-10T11:28:09;23.90;;;13.27;;
35380;SDS011;21486;51.916;8.378;2023-05-10T11:30:36;22.33;;;12.75;;
35380;SDS011;21486;51.916;8.378;2023-05-10T11:33:04;18.92;;;11.82;;
35380;SDS011;21486;51.916;8.378;2023-05-10T11:35:30;19.00;;;13.10;;
35380;SDS011;21486;51.916;8.378;2023-05-10T11:38:01;22.48;;;12.95;;
35380;SDS011;21486;51.916;8.378;2023-05-10T11:40:26;26.98;;;14.27;;
35380;SDS011;21486;51.916;8.378;2023-05-10T11:42:55;29.43;;;15.60;;
35380;SDS011;21486;51.916;8.378;2023-05-10T11:45:23;30.60;;;17.58;;
35380;SDS011;21486;51.916;8.378;2023-05-10T11:47:49;33.00;;;18.27;;
35380;SDS011;21486;51.916;8.378;2023-05-10T11:50:15;31.70;;;17.90;;
35380;SDS011;21486;51.916;8.378;2023-05-10T11:52:40;34.95;;;19.45;;
35380;SDS011;21486;51.916;8.378;2023-05-10T11:55:06;31.93;;;18.87;;
35380;SDS011;21486;51.916;8.378;2023-05-10T11:57:32;31.60;;;17.70;;
35380;SDS011;21486;51.916;8.378;2023-05-10T11:59:57;31.20;;;18.53;;
35380;SDS011;21486;51.916;8.378;2023-05-10T12:02:23;35.72;;;18.70;;
35380;SDS011;21486;51.916;8.378;2023-05-10T12:04:49;31.77;;;18.52;;
35380;SDS011;21486;51.916;8.378;2023-05-10T12:07:15;32.03;;;18.53;;
35380;SDS011;21486;51.916;8.378;2023-05-10T12:09:44;30.90;;;17.88;;
35380;SDS011;21486;51.916;8.378;2023-05-10T12:12:39;35.58;;;20.08;;
35380;SDS011;21486;51.916;8.378;2023-05-10T12:15:16;35.13;;;18.75;;
35380;SDS011;21486;51.916;8.378;2023-05-10T12:17:44;32.72;;;17.95;;
35380;SDS011;21486;51.916;8.378;2023-05-10T12:22:40;29.75;;;17.02;;
35380;SDS011;21486;51.916;8.378;2023-05-10T12:25:08;35.00;;;19.23;;
35380;SDS011;21486;51.916;8.378;2023-05-10T12:27:35;33.72;;;18.60;;
35380;SDS011;21486;51.916;8.378;2023-05-10T12:30:01;31.48;;;17.45;;
35380;SDS011;21486;51.916;8.378;2023-05-10T12:32:37;29.27;;;16.80;;
35380;SDS011;21486;51.916;8.378;2023-05-10T12:35:06;22.23;;;14.30;;
35380;SDS011;21486;51.916;8.378;2023-05-10T12:37:32;26.70;;;15.40;;
35380;SDS011;21486;51.916;8.378;2023-05-10T12:40:03;29.05;;;15.57;;
35380;SDS011;21486;51.916;8.378;2023-05-10T12:42:33;25.20;;;15.55;;
35380;SDS011;21486;51.916;8.378;2023-05-10T12:44:59;25.73;;;15.70;;
35380;SDS011;21486;51.916;8.378;2023-05-10T12:47:25;22.70;;;14.73;;
35380;SDS011;21486;51.916;8.378;2023-05-10T12:49:50;24.00;;;14.80;;
35380;SDS011;21486;51.916;8.378;2023-05-10T12:52:16;23.23;;;14.88;;
35380;SDS011;21486;51.916;8.378;2023-05-10T12:54:41;27.03;;;16.37;;
35380;SDS011;21486;51.916;8.378;2023-05-10T12:57:07;26.80;;;16.10;;
35380;SDS011;21486;51.916;8.378;2023-05-10T12:59:33;30.02;;;16.50;;
35380;SDS011;21486;51.916;8.378;2023-05-10T13:01:58;24.10;;;16.27;;
35380;SDS011;21486;51.916;8.378;2023-05-10T13:04:24;27.48;;;16.23;;
35380;SDS011;21486;51.916;8.378;2023-05-10T13:06:49;27.90;;;16.23;;
35380;SDS011;21486;51.916;8.378;2023-05-10T13:09:15;25.48;;;15.65;;
35380;SDS011;21486;51.916;8.378;2023-05-10T13:11:40;28.83;;;16.80;;
35380;SDS011;21486;51.916;8.378;2023-05-10T13:14:06;25.93;;;15.33;;
35380;SDS011;21486;51.916;8.378;2023-05-10T13:16:31;27.85;;;16.90;;
35380;SDS011;21486;51.916;8.378;2023-05-10T13:18:57;37.27;;;18.73;;
35380;SDS011;21486;51.916;8.378;2023-05-10T13:21:23;38.97;;;20.03;;
35380;SDS011;21486;51.916;8.378;2023-05-10T13:23:50;30.05;;;17.67;;
35380;SDS011;21486;51.916;8.378;2023-05-10T13:26:15;29.77;;;17.83;;
35380;SDS011;21486;51.916;8.378;2023-05-10T13:28:41;32.83;;;18.30;;
35380;SDS011;21486;51.916;8.378;2023-05-10T13:31:07;31.67;;;17.67;;
35380;SDS011;21486;51.916;8.378;2023-05-10T13:33:32;33.92;;;18.55;;
35380;SDS011;21486;51.916;8.378;2023-05-10T13:35:58;30.03;;;17.30;;
35380;SDS011;21486;51.916;8.378;2023-05-10T13:38:23;34.85;;;18.10;;
35380;SDS011;21486;51.916;8.378;2023-05-10T13:40:49;38.03;;;19.57;;
35380;SDS011;21486;51.916;8.378;2023-05-10T13:43:17;30.67;;;18.60;;
35380;SDS011;21486;51.916;8.378;2023-05-10T13:45:43;29.90;;;17.37;;
35380;SDS011;21486;51.916;8.378;2023-05-10T13:48:08;29.50;;;16.13;;
35380;SDS011;21486;51.916;8.378;2023-05-10T13:50:34;24.98;;;14.65;;
35380;SDS011;21486;51.916;8.378;2023-05-10T13:53:00;25.20;;;15.53;;
35380;SDS011;21486;51.916;8.378;2023-05-10T13:55:25;26.13;;;15.90;;
35380;SDS011;21486;51.916;8.378;2023-05-10T13:57:51;26.77;;;15.93;;
35380;SDS011;21486;51.916;8.378;2023-05-10T14:00:16;27.70;;;16.23;;
35380;SDS011;21486;51.916;8.378;2023-05-10T14:02:42;25.70;;;16.05;;
35380;SDS011;21486;51.916;8.378;2023-05-10T14:05:08;25.83;;;16.02;;
35380;SDS011;21486;51.916;8.378;2023-05-10T14:07:34;24.13;;;15.07;;
35380;SDS011;21486;51.916;8.378;2023-05-10T14:09:59;23.37;;;14.90;;
35380;SDS011;21486;51.916;8.378;2023-05-10T14:12:25;27.02;;;15.98;;
35380;SDS011;21486;51.916;8.378;2023-05-10T14:14:51;29.70;;;17.75;;
35380;SDS011;21486;51.916;8.378;2023-05-10T14:17:17;28.02;;;17.23;;
35380;SDS011;21486;51.916;8.378;2023-05-10T14:19:42;25.65;;;16.52;;
35380;SDS011;21486;51.916;8.378;2023-05-10T14:22:08;26.67;;;17.93;;
35380;SDS011;21486;51.916;8.378;2023-05-10T14:24:34;32.20;;;19.03;;
35380;SDS011;21486;51.916;8.378;2023-05-10T14:26:59;32.55;;;19.98;;
35380;SDS011;21486;51.916;8.378;2023-05-10T14:29:25;31.55;;;18.98;;
35380;SDS011;21486;51.916;8.378;2023-05-10T14:31:51;35.33;;;19.93;;
35380;SDS011;21486;51.916;8.378;2023-05-10T14:34:17;28.63;;;18.13;;
35380;SDS011;21486;51.916;8.378;2023-05-10T14:36:42;32.65;;;19.90;;
35380;SDS011;21486;51.916;8.378;2023-05-10T14:39:08;29.00;;;17.73;;
35380;SDS011;21486;51.916;8.378;2023-05-10T14:41:35;28.63;;;19.00;;
35380;SDS011;21486;51.916;8.378;2023-05-10T14:44:02;30.70;;;19.00;;
35380;SDS011;21486;51.916;8.378;2023-05-10T14:46:28;33.38;;;20.13;;
35380;SDS011;21486;51.916;8.378;2023-05-10T14:48:54;29.08;;;18.60;;
35380;SDS011;21486;51.916;8.378;2023-05-10T14:51:20;30.30;;;19.70;;
35380;SDS011;21486;51.916;8.378;2023-05-10T14:53:47;29.63;;;18.70;;
35380;SDS011;21486;51.916;8.378;2023-05-10T14:56:14;30.33;;;18.42;;
35380;SDS011;21486;51.916;8.378;2023-05-10T14:58:40;30.60;;;18.42;;
35380;SDS011;21486;51.916;8.378;2023-05-10T15:01:06;29.73;;;18.40;;
35380;SDS011;21486;51.916;8.378;2023-05-10T15:03:31;28.13;;;17.92;;
35380;SDS011;21486;51.916;8.378;2023-05-10T15:05:57;26.50;;;17.55;;
35380;SDS011;21486;51.916;8.378;2023-05-10T15:08:23;28.03;;;18.00;;
35380;SDS011;21486;51.916;8.378;2023-05-10T15:10:49;26.60;;;17.10;;